This is the latest recevied weather packets stored in our database for station/object KA6AKH-13. If no packets are shown the sender has not sent any weather packets the latest 1 day(s).
| Time | Temp. | Humidity | Pressure | Rain* | Wind** | Luminosity | Snow |
|---|---|---|---|---|---|---|---|
| 1778011765 | 30° C | 25% | 1008.9 hPa | 0 mm | 1.34 m/s, 251° | - | - |
| 1778011135 | 30° C | 27% | 1008.9 hPa | 0 mm | 1.34 m/s, 244° | - | - |
| 1778010535 | 30° C | 27% | 1009 hPa | 0 mm | 1.34 m/s, 217° | - | - |
| 1778009335 | 29.44° C | 27% | 1009.3 hPa | 0 mm | 2.68 m/s, 210° | - | - |
| 1778007505 | 29.44° C | 28% | 1009.8 hPa | 0 mm | 2.68 m/s, 219° | - | - |
| 1778006878 | 29.44° C | 29% | 1010 hPa | 0 mm | 0.89 m/s, 206° | - | - |
| 1778005780 | 29.44° C | 28% | 1010.4 hPa | 0 mm | 1.34 m/s, 188° | - | - |
| 1778005615 | 29.44° C | 28% | 1010.4 hPa | 0 mm | 1.34 m/s, 188° | - | - |
| 1778004415 | 28.89° C | 32% | 1010.7 hPa | 0 mm | 2.24 m/s, 198° | - | - |
| 1778003785 | 28.89° C | 30% | 1010.7 hPa | 0 mm | 2.24 m/s, 249° | - | - |
| 1778003155 | 28.89° C | 33% | 1010.8 hPa | 0 mm | 2.24 m/s, 221° | - | - |
| 1778002525 | 29.44° C | 32% | 1010.8 hPa | 0 mm | 0.89 m/s, 207° | - | - |
| 1778001986 | 28.89° C | 33% | 1010.8 hPa | 0 mm | 0.89 m/s, 200° | - | - |
| 1778001925 | 28.89° C | 33% | 1010.8 hPa | 0 mm | 0.89 m/s, 200° | - | - |
| 1778001295 | 28.89° C | 34% | 1011.1 hPa | 0 mm | 2.24 m/s, 231° | - | - |
| 1778000666 | 28.33° C | 35% | 1011 hPa | 0 mm | 1.34 m/s, 230° | - | - |
| 1778000611 | 27.78° C | 35% | 1011.2 hPa | 0 mm | 2.24 m/s, 202° | - | - |
| 1778000035 | 27.78° C | 35% | 1011.2 hPa | 0 mm | 2.24 m/s, 202° | - | - |
| 1777999437 | 27.78° C | 36% | 1011.3 hPa | 0 mm | 1.34 m/s, 241° | - | - |
| 1777994485 | 23.89° C | 47% | 1012.3 hPa | 0 mm | 0.45 m/s, 119° | - | - |
| 1777993887 | 23.89° C | 47% | 1012.2 hPa | 0 mm | 0.89 m/s, 235° | - | - |
| 1777992655 | 23.33° C | 49% | 1012.2 hPa | 0 mm | 0.45 m/s, 199° | - | - |
| 1777992025 | 22.78° C | 50% | 1012.3 hPa | 0 mm | 0.45 m/s, 212° | - | - |
| 1777990795 | 22.22° C | 52% | 1012.4 hPa | 0 mm | 0 m/s | - | - |
| 1777989657 | 21.67° C | 51% | 1012.4 hPa | 0 mm | 1.34 m/s, 228° | - | - |
* Rain latest hour (hover to see other rain measurements)
** Current wind speed in m/s (hover to see current wind gust speed)